Time;durP1;ratioP1;P1;durP2;ratioP2;P2;SDS_P1;SDS_P2;PMS_P1;PMS_P2;Temp;Humidity;BMP_temperature;BMP_pressure;BME280_temperature;BME280_humidity;BME280_pressure;Samples;Min_cycle;Max_cycle;Signal;HPM_P1;HPM_P2
2024/03/03 00:02:55;;;;;;;39.77;16.10;;;;;;;;;;6196903;23;20256;-91
2024/03/03 00:06:00;;;;;;;40.53;15.63;;;;;;;;;;6178097;23;20172;-90
2024/03/03 00:09:05;;;;;;;42.40;17.23;;;;;;;;;;6196099;23;20167;-89
2024/03/03 00:12:11;;;;;;;35.97;15.87;;;;;;;;;;6178723;23;20172;-90
2024/03/03 00:15:16;;;;;;;43.90;17.10;;;;;;;;;;6196462;23;20171;-91
2024/03/03 00:18:21;;;;;;;39.20;16.57;;;;;;;;;;6179490;23;20508;-90
2024/03/03 00:21:27;;;;;;;52.10;19.43;;;;;;;;;;6196376;23;20195;-90
2024/03/03 00:24:32;;;;;;;42.30;16.80;;;;;;;;;;6195166;23;20164;-90
2024/03/03 00:27:38;;;;;;;36.90;14.77;;;;;;;;;;6194276;23;20160;-90
2024/03/03 00:30:43;;;;;;;35.33;15.30;;;;;;;;;;6196756;23;20156;-90
2024/03/03 00:33:48;;;;;;;44.23;17.47;;;;;;;;;;6177478;23;20218;-89
2024/03/03 00:36:53;;;;;;;38.10;15.07;;;;;;;;;;6195064;23;20679;-91
2024/03/03 00:39:58;;;;;;;40.10;15.30;;;;;;;;;;6195948;23;20184;-89
2024/03/03 00:43:05;;;;;;;44.70;15.40;;;;;;;;;;6178490;23;20168;-89
2024/03/03 00:46:12;;;;;;;38.73;15.60;;;;;;;;;;6178534;23;20148;-90
2024/03/03 00:49:17;;;;;;;48.07;19.07;;;;;;;;;;6178864;23;20219;-89
2024/03/03 00:52:22;;;;;;;38.40;15.23;;;;;;;;;;6180090;23;20219;-89
2024/03/03 00:55:26;;;;;;;44.10;15.97;;;;;;;;;;6195102;23;20164;-90
2024/03/03 00:58:33;;;;;;;39.83;15.53;;;;;;;;;;6194460;23;20514;-91
2024/03/03 01:01:38;;;;;;;38.77;15.93;;;;;;;;;;6176918;23;20200;-91
2024/03/03 01:04:43;;;;;;;34.77;14.93;;;;;;;;;;6179118;23;20235;-90
2024/03/03 01:07:48;;;;;;;36.93;15.17;;;;;;;;;;6180300;23;20155;-91
2024/03/03 01:10:53;;;;;;;37.17;15.10;;;;;;;;;;6196876;23;20167;-91
2024/03/03 01:14:00;;;;;;;32.97;14.40;;;;;;;;;;6179363;23;20239;-90
2024/03/03 01:17:06;;;;;;;38.07;15.77;;;;;;;;;;6196090;23;20280;-90
2024/03/03 01:20:11;;;;;;;40.80;15.40;;;;;;;;;;6179871;23;20215;-90
2024/03/03 01:23:17;;;;;;;39.03;14.90;;;;;;;;;;6196161;23;20171;-90
2024/03/03 01:26:21;;;;;;;47.73;15.23;;;;;;;;;;6196630;23;20495;-91
2024/03/03 01:29:28;;;;;;;49.30;15.00;;;;;;;;;;6180400;23;20230;-91
2024/03/03 01:32:33;;;;;;;75.77;16.10;;;;;;;;;;6178710;23;20247;-90
2024/03/03 01:35:38;;;;;;;55.07;15.60;;;;;;;;;;6179888;23;20185;-91
2024/03/03 01:38:43;;;;;;;35.23;14.67;;;;;;;;;;6180511;23;20171;-91
2024/03/03 01:41:48;;;;;;;40.47;14.17;;;;;;;;;;6196252;23;20555;-90
2024/03/03 01:44:55;;;;;;;31.00;12.93;;;;;;;;;;6180527;23;20191;-91
2024/03/03 01:48:00;;;;;;;29.83;12.17;;;;;;;;;;6179193;23;20524;-90
2024/03/03 01:51:06;;;;;;;33.47;13.73;;;;;;;;;;6180226;23;20160;-92
2024/03/03 01:54:15;;;;;;;34.57;13.33;;;;;;;;;;6178346;23;20167;-91
2024/03/03 01:57:26;;;;;;;43.53;14.00;;;;;;;;;;6178922;23;20167;-90
2024/03/03 02:00:34;;;;;;;36.00;14.27;;;;;;;;;;6180883;23;20458;-90
2024/03/03 02:03:40;;;;;;;36.23;14.07;;;;;;;;;;6184121;23;20163;-91
2024/03/03 02:06:46;;;;;;;35.13;14.27;;;;;;;;;;6182917;23;20180;-89
2024/03/03 02:09:51;;;;;;;36.93;14.07;;;;;;;;;;6181582;23;20167;-90
2024/03/03 02:12:56;;;;;;;53.33;14.57;;;;;;;;;;6196870;23;20444;-92
2024/03/03 02:16:03;;;;;;;38.00;13.20;;;;;;;;;;6180199;23;20686;-91
2024/03/03 02:19:08;;;;;;;34.50;13.77;;;;;;;;;;6197241;23;20168;-90
2024/03/03 02:22:15;;;;;;;35.07;14.00;;;;;;;;;;6180565;23;20655;-92
2024/03/03 02:25:20;;;;;;;45.50;18.03;;;;;;;;;;6181152;23;20167;-91
2024/03/03 02:28:26;;;;;;;41.53;14.43;;;;;;;;;;6198413;23;20212;-87
2024/03/03 02:31:33;;;;;;;39.07;14.13;;;;;;;;;;6198246;23;20172;-90
2024/03/03 02:34:38;;;;;;;53.20;13.60;;;;;;;;;;6197432;23;20520;-89
2024/03/03 02:37:46;;;;;;;53.73;13.83;;;;;;;;;;6196631;23;20219;-91
2024/03/03 02:40:51;;;;;;;53.73;12.30;;;;;;;;;;6179228;23;20647;-90
2024/03/03 02:43:57;;;;;;;35.77;12.87;;;;;;;;;;6196773;23;20172;-90
2024/03/03 02:47:03;;;;;;;32.37;12.23;;;;;;;;;;6199108;23;20271;-89
2024/03/03 02:50:09;;;;;;;41.47;12.90;;;;;;;;;;6181306;23;20168;-92
2024/03/03 02:53:16;;;;;;;27.13;12.00;;;;;;;;;;6198103;23;20172;-89
2024/03/03 02:56:21;;;;;;;30.87;12.60;;;;;;;;;;6179129;23;20171;-90
2024/03/03 02:59:26;;;;;;;40.47;11.83;;;;;;;;;;6180209;23;20517;-89
2024/03/03 03:02:31;;;;;;;37.90;11.50;;;;;;;;;;6196409;23;20195;-91
2024/03/03 03:05:36;;;;;;;39.33;12.27;;;;;;;;;;6179384;23;20203;-90
2024/03/03 03:08:43;;;;;;;37.53;11.23;;;;;;;;;;6196413;23;20168;-90
2024/03/03 03:11:50;;;;;;;31.10;11.20;;;;;;;;;;6196406;23;20217;-90
2024/03/03 03:14:55;;;;;;;31.23;10.90;;;;;;;;;;6196762;23;20155;-89
2024/03/03 03:18:01;;;;;;;32.80;11.73;;;;;;;;;;6196591;23;20171;-89
2024/03/03 03:21:07;;;;;;;28.37;11.43;;;;;;;;;;6180213;23;20191;-89
2024/03/03 03:24:13;;;;;;;27.47;11.00;;;;;;;;;;6177463;23;20239;-89
2024/03/03 03:27:18;;;;;;;28.33;11.93;;;;;;;;;;6196498;23;20176;-90
2024/03/03 03:30:23;;;;;;;31.30;12.07;;;;;;;;;;6178454;23;20167;-90
2024/03/03 03:33:28;;;;;;;27.00;10.97;;;;;;;;;;6196562;23;20237;-91
2024/03/03 03:36:33;;;;;;;26.27;11.40;;;;;;;;;;6179221;23;20179;-89
2024/03/03 03:39:41;;;;;;;31.13;11.37;;;;;;;;;;6196388;23;20192;-90
2024/03/03 03:42:46;;;;;;;25.33;10.53;;;;;;;;;;6179732;23;20252;-90
2024/03/03 03:45:51;;;;;;;27.10;11.43;;;;;;;;;;6196531;23;20168;-90
2024/03/03 03:49:00;;;;;;;27.23;11.03;;;;;;;;;;6197789;23;20175;-89
2024/03/03 03:52:05;;;;;;;25.77;11.20;;;;;;;;;;6181110;23;20214;-90
2024/03/03 03:55:12;;;;;;;28.07;10.67;;;;;;;;;;6179067;23;20655;-90
2024/03/03 03:58:17;;;;;;;34.90;12.80;;;;;;;;;;6195331;23;20187;-89
2024/03/03 04:01:22;;;;;;;34.80;11.57;;;;;;;;;;6196399;23;20199;-91
2024/03/03 04:04:28;;;;;;;25.80;11.93;;;;;;;;;;6179705;23;20509;-90
2024/03/03 04:07:34;;;;;;;25.43;11.67;;;;;;;;;;6197824;23;20243;-90
2024/03/03 04:10:41;;;;;;;27.93;12.00;;;;;;;;;;6181427;23;20171;-89
2024/03/03 04:13:48;;;;;;;32.30;12.80;;;;;;;;;;6198986;23;20167;-90
2024/03/03 04:16:54;;;;;;;69.13;13.57;;;;;;;;;;6199494;23;20168;-91
2024/03/03 04:19:59;;;;;;;28.67;12.77;;;;;;;;;;6198835;23;20164;-90
2024/03/03 04:23:04;;;;;;;42.87;12.17;;;;;;;;;;6181368;23;20662;-89
2024/03/03 04:26:11;;;;;;;31.77;12.60;;;;;;;;;;6181748;23;20156;-90
2024/03/03 04:29:16;;;;;;;65.43;11.93;;;;;;;;;;6197806;23;20172;-91
2024/03/03 04:32:22;;;;;;;27.30;11.97;;;;;;;;;;6181041;23;20168;-90
2024/03/03 04:35:27;;;;;;;38.07;12.30;;;;;;;;;;6181269;23;20180;-91
2024/03/03 04:38:32;;;;;;;34.20;11.73;;;;;;;;;;6179696;23;20171;-89
2024/03/03 04:41:39;;;;;;;78.53;13.23;;;;;;;;;;6180821;23;20525;-90
2024/03/03 04:44:45;;;;;;;56.73;12.30;;;;;;;;;;6199787;23;20163;-90
2024/03/03 04:47:50;;;;;;;30.90;11.17;;;;;;;;;;6198136;23;20172;-91
2024/03/03 04:50:55;;;;;;;62.97;11.37;;;;;;;;;;6198785;23;20580;-91
2024/03/03 04:54:02;;;;;;;49.03;10.60;;;;;;;;;;6179622;23;20184;-91
2024/03/03 04:57:08;;;;;;;23.47;9.33;;;;;;;;;;6197254;23;20172;-90
2024/03/03 05:00:14;;;;;;;78.23;11.50;;;;;;;;;;6178958;23;20193;-90
2024/03/03 05:03:19;;;;;;;137.70;12.77;;;;;;;;;;6181285;23;20179;-89
2024/03/03 05:06:24;;;;;;;30.30;10.37;;;;;;;;;;6178394;23;20192;-91
2024/03/03 05:09:29;;;;;;;76.90;10.90;;;;;;;;;;6179124;23;20152;-91
2024/03/03 05:12:36;;;;;;;94.80;11.30;;;;;;;;;;6195049;23;20176;-90
2024/03/03 05:15:41;;;;;;;25.37;9.93;;;;;;;;;;6196262;23;20164;-91
2024/03/03 05:18:46;;;;;;;24.80;9.70;;;;;;;;;;6178828;23;20179;-89
2024/03/03 05:21:51;;;;;;;42.17;10.80;;;;;;;;;;6178728;23;20203;-91
2024/03/03 05:24:56;;;;;;;32.17;10.07;;;;;;;;;;6178944;23;20151;-91
2024/03/03 05:28:04;;;;;;;28.77;10.13;;;;;;;;;;6179037;23;20168;-90
2024/03/03 05:31:09;;;;;;;26.50;9.53;;;;;;;;;;6180603;23;20167;-90
2024/03/03 05:34:15;;;;;;;15.87;8.27;;;;;;;;;;6180135;23;20168;-90
2024/03/03 05:37:20;;;;;;;17.90;8.73;;;;;;;;;;6179787;23;20203;-91
2024/03/03 05:40:25;;;;;;;41.17;9.77;;;;;;;;;;6179215;23;20211;-90
2024/03/03 05:43:32;;;;;;;26.53;9.67;;;;;;;;;;6179277;23;20238;-91
2024/03/03 05:46:37;;;;;;;32.70;9.13;;;;;;;;;;6178310;23;20229;-91
2024/03/03 05:49:42;;;;;;;52.03;9.10;;;;;;;;;;6177702;23;20291;-90
2024/03/03 05:52:47;;;;;;;35.30;9.10;;;;;;;;;;6177313;23;20172;-91
2024/03/03 05:55:52;;;;;;;23.10;9.47;;;;;;;;;;6178333;23;20687;-90
2024/03/03 05:58:59;;;;;;;31.53;8.33;;;;;;;;;;6179401;23;20195;-90
2024/03/03 06:02:04;;;;;;;24.77;9.30;;;;;;;;;;6180050;23;20635;-91
2024/03/03 06:05:10;;;;;;;21.17;8.73;;;;;;;;;;6180404;23;20171;-90
2024/03/03 06:08:16;;;;;;;21.27;9.13;;;;;;;;;;6180138;23;20148;-91
2024/03/03 06:11:21;;;;;;;32.03;9.23;;;;;;;;;;6180597;23;20168;-91
2024/03/03 06:14:27;;;;;;;52.53;10.70;;;;;;;;;;6180634;23;20210;-91
2024/03/03 06:17:32;;;;;;;20.47;9.23;;;;;;;;;;6178031;23;20172;-90
2024/03/03 06:20:38;;;;;;;15.93;8.30;;;;;;;;;;6175646;23;20223;-90
2024/03/03 06:23:43;;;;;;;18.63;8.53;;;;;;;;;;6176294;23;20175;-91
2024/03/03 06:26:48;;;;;;;18.23;9.10;;;;;;;;;;6176619;23;20156;-90
2024/03/03 06:29:55;;;;;;;24.13;8.03;;;;;;;;;;6177664;23;20171;-90
2024/03/03 06:33:00;;;;;;;33.77;8.50;;;;;;;;;;6178657;23;20175;-89
2024/03/03 06:36:06;;;;;;;17.43;8.53;;;;;;;;;;6176851;23;20164;-91
2024/03/03 06:39:12;;;;;;;21.10;8.10;;;;;;;;;;6178988;23;20211;-90
2024/03/03 06:42:18;;;;;;;18.23;7.93;;;;;;;;;;6178658;23;20663;-91
2024/03/03 06:45:24;;;;;;;23.37;9.00;;;;;;;;;;6178537;23;20167;-90
2024/03/03 06:48:30;;;;;;;20.10;8.20;;;;;;;;;;6178872;23;20168;-90
2024/03/03 06:51:35;;;;;;;18.00;7.90;;;;;;;;;;6178602;23;20237;-90
2024/03/03 06:54:40;;;;;;;19.73;8.13;;;;;;;;;;6178976;23;20168;-90
2024/03/03 06:57:47;;;;;;;17.37;8.37;;;;;;;;;;6177678;23;20207;-90
2024/03/03 07:00:54;;;;;;;17.30;7.80;;;;;;;;;;6177793;23;20191;-91
2024/03/03 07:07:21;;;;;;;52.83;9.93;;;;;;;;;;6178417;23;20220;-91
2024/03/03 07:10:26;;;;;;;24.33;9.47;;;;;;;;;;6178362;23;20239;-90
2024/03/03 07:13:31;;;;;;;27.10;9.87;;;;;;;;;;6179100;23;20228;-91
2024/03/03 07:16:37;;;;;;;25.20;8.47;;;;;;;;;;6177775;23;20203;-90
2024/03/03 07:19:46;;;;;;;19.77;8.83;;;;;;;;;;6178392;23;20156;-91
2024/03/03 07:22:51;;;;;;;18.80;8.57;;;;;;;;;;6177297;23;20211;-89
2024/03/03 07:25:56;;;;;;;20.40;8.40;;;;;;;;;;6177622;23;20494;-89
2024/03/03 07:29:03;;;;;;;19.10;8.40;;;;;;;;;;6177928;23;20172;-89
2024/03/03 07:32:09;;;;;;;18.57;8.20;;;;;;;;;;6177678;23;20219;-89
2024/03/03 07:35:15;;;;;;;23.30;8.70;;;;;;;;;;6178281;23;20171;-90
2024/03/03 07:38:19;;;;;;;19.43;8.00;;;;;;;;;;6179721;23;20610;-91
2024/03/03 07:41:27;;;;;;;18.33;8.67;;;;;;;;;;6178732;23;20211;-91
2024/03/03 07:44:32;;;;;;;17.47;8.23;;;;;;;;;;6177782;23;20167;-91
2024/03/03 07:47:38;;;;;;;14.73;8.10;;;;;;;;;;6178667;23;20163;-90
2024/03/03 07:50:47;;;;;;;16.83;8.43;;;;;;;;;;6180172;23;20172;-90
2024/03/03 07:53:54;;;;;;;18.73;8.57;;;;;;;;;;6181836;23;20255;-91
2024/03/03 07:56:59;;;;;;;17.03;8.83;;;;;;;;;;6181401;23;20203;-92
2024/03/03 08:00:07;;;;;;;17.67;8.47;;;;;;;;;;6179260;23;20226;-93
2024/03/03 08:03:20;;;;;;;20.17;9.10;;;;;;;;;;6198326;23;20183;-90
2024/03/03 08:06:27;;;;;;;15.30;8.33;;;;;;;;;;6180351;23;20163;-90
2024/03/03 08:09:35;;;;;;;15.07;7.87;;;;;;;;;;6179657;23;20164;-91
2024/03/03 08:12:42;;;;;;;18.37;8.17;;;;;;;;;;6178573;23;20183;-92
2024/03/03 08:15:47;;;;;;;17.17;8.43;;;;;;;;;;6179871;23;20172;-90
2024/03/03 08:18:58;;;;;;;19.80;8.57;;;;;;;;;;6181272;23;20287;-91
2024/03/03 08:22:09;;;;;;;24.00;9.13;;;;;;;;;;6180147;23;20184;-92
2024/03/03 08:25:14;;;;;;;17.90;8.23;;;;;;;;;;6180222;23;20300;-92
2024/03/03 08:28:20;;;;;;;16.23;7.57;;;;;;;;;;6179243;23;20167;-92
2024/03/03 08:31:27;;;;;;;16.15;8.15;;;;;;;;;;6179191;23;20211;-92
2024/03/03 08:34:34;;;;;;;18.52;8.98;;;;;;;;;;6179590;23;20163;-92
2024/03/03 08:37:43;;;;;;;17.00;7.75;;;;;;;;;;6182524;23;20233;-91
2024/03/03 08:40:51;;;;;;;16.67;8.15;;;;;;;;;;6182640;23;20168;-92
2024/03/03 08:43:58;;;;;;;15.30;8.07;;;;;;;;;;6183372;23;20183;-92
2024/03/03 08:47:06;;;;;;;15.88;8.10;;;;;;;;;;6183488;23;20168;-91
2024/03/03 08:50:14;;;;;;;14.57;7.57;;;;;;;;;;6167160;23;20183;-93
2024/03/03 08:53:22;;;;;;;15.80;7.57;;;;;;;;;;6186409;23;20155;-91
2024/03/03 08:56:43;;;;;;;16.23;7.00;;;;;;;;;;6182731;23;20317;-92
2024/03/03 08:59:49;;;;;;;19.15;7.30;;;;;;;;;;6183056;23;20164;-92
2024/03/03 09:02:57;;;;;;;13.50;6.85;;;;;;;;;;6183189;23;20203;-92
2024/03/03 09:06:09;;;;;;;16.67;7.32;;;;;;;;;;6185235;23;20175;-92
2024/03/03 09:09:17;;;;;;;14.32;7.13;;;;;;;;;;6184331;23;20163;-92
2024/03/03 09:12:26;;;;;;;13.05;6.97;;;;;;;;;;6184162;23;20172;-91
2024/03/03 09:15:35;;;;;;;13.57;7.20;;;;;;;;;;6183358;23;20219;-91
2024/03/03 09:18:40;;;;;;;12.23;6.63;;;;;;;;;;6182044;23;20172;-90
2024/03/03 09:21:50;;;;;;;13.05;6.70;;;;;;;;;;6182447;23;20603;-90
2024/03/03 09:24:58;;;;;;;14.68;6.55;;;;;;;;;;6184128;23;20248;-91
2024/03/03 09:28:08;;;;;;;13.55;6.68;;;;;;;;;;6185989;23;20164;-91
2024/03/03 09:31:16;;;;;;;13.80;6.35;;;;;;;;;;6183234;23;20163;-92
2024/03/03 09:34:25;;;;;;;15.00;6.22;;;;;;;;;;6183161;23;20179;-92
2024/03/03 09:37:33;;;;;;;9.82;5.13;;;;;;;;;;6184473;23;20167;-91
2024/03/03 09:40:41;;;;;;;12.15;6.20;;;;;;;;;;6184437;23;20169;-90
2024/03/03 09:43:50;;;;;;;14.90;7.43;;;;;;;;;;6184913;23;20650;-92
2024/03/03 09:46:56;;;;;;;13.95;5.68;;;;;;;;;;6183562;23;20212;-92
2024/03/03 09:50:03;;;;;;;17.77;7.13;;;;;;;;;;6182892;23;20215;-90
2024/03/03 09:53:17;;;;;;;12.77;6.43;;;;;;;;;;6183999;23;20191;-91
2024/03/03 09:56:24;;;;;;;10.85;5.63;;;;;;;;;;6184183;23;20168;-91
2024/03/03 09:59:33;;;;;;;10.95;5.60;;;;;;;;;;6182071;23;20188;-91
2024/03/03 10:02:39;;;;;;;9.35;5.38;;;;;;;;;;6182883;23;20207;-91
2024/03/03 10:05:45;;;;;;;9.75;4.88;;;;;;;;;;6184013;23;20160;-91
2024/03/03 10:08:54;;;;;;;11.65;5.20;;;;;;;;;;6183036;23;20239;-92
2024/03/03 10:12:01;;;;;;;8.02;4.65;;;;;;;;;;6181575;23;20187;-90
2024/03/03 10:15:08;;;;;;;8.57;4.60;;;;;;;;;;6180471;23;20242;-92
2024/03/03 10:18:13;;;;;;;8.88;4.07;;;;;;;;;;6181675;23;20156;-91
2024/03/03 10:21:19;;;;;;;8.35;4.03;;;;;;;;;;6182886;23;20168;-91
2024/03/03 10:24:29;;;;;;;8.00;4.18;;;;;;;;;;6184285;23;20315;-91
2024/03/03 10:27:34;;;;;;;8.32;3.83;;;;;;;;;;6182200;23;20220;-93
2024/03/03 10:30:39;;;;;;;6.53;3.50;;;;;;;;;;6180524;23;20183;-90
2024/03/03 10:34:06;;;;;;;10.85;3.58;;;;;;;;;;6180543;23;20212;-92
2024/03/03 10:37:12;;;;;;;11.10;3.50;;;;;;;;;;6181727;23;20199;-91
2024/03/03 10:40:20;;;;;;;11.63;4.28;;;;;;;;;;6181322;23;20522;-91
2024/03/03 10:43:25;;;;;;;6.05;3.28;;;;;;;;;;6181729;23;20243;-91
2024/03/03 10:46:31;;;;;;;9.65;2.67;;;;;;;;;;6182420;23;20168;-91
2024/03/03 10:49:36;;;;;;;5.63;2.00;;;;;;;;;;6183230;23;20262;-92
2024/03/03 10:56:04;;;;;;;5.15;2.28;;;;;;;;;;6185666;23;20519;-91
2024/03/03 10:59:11;;;;;;;4.55;2.40;;;;;;;;;;6186965;23;20203;-91
2024/03/03 11:02:22;;;;;;;4.75;2.33;;;;;;;;;;6183932;23;20165;-91
2024/03/03 11:05:28;;;;;;;4.85;2.03;;;;;;;;;;6183201;23;20172;-92
2024/03/03 11:08:36;;;;;;;3.78;1.90;;;;;;;;;;6183332;23;20171;-91
2024/03/03 11:11:44;;;;;;;3.95;2.00;;;;;;;;;;6183793;23;20167;-91
2024/03/03 11:14:53;;;;;;;6.18;2.00;;;;;;;;;;6183044;23;20240;-92
2024/03/03 11:18:09;;;;;;;2.85;1.52;;;;;;;;;;6183381;23;20209;-93
2024/03/03 11:21:16;;;;;;;4.15;2.08;;;;;;;;;;6182639;23;20172;-92
2024/03/03 11:24:24;;;;;;;3.92;1.90;;;;;;;;;;6180730;23;20187;-91
2024/03/03 11:27:31;;;;;;;4.40;1.63;;;;;;;;;;6182186;23;20151;-93
2024/03/03 11:30:38;;;;;;;5.88;1.92;;;;;;;;;;6201621;23;20179;-92
2024/03/03 11:33:44;;;;;;;3.53;1.80;;;;;;;;;;6181382;23;20184;-92
2024/03/03 11:36:49;;;;;;;3.05;1.65;;;;;;;;;;6180795;23;20171;-93
2024/03/03 11:39:55;;;;;;;6.10;2.10;;;;;;;;;;6179436;23;20623;-91
2024/03/03 11:43:01;;;;;;;5.20;2.20;;;;;;;;;;6184852;23;20195;-91
2024/03/03 11:46:09;;;;;;;6.45;1.90;;;;;;;;;;6180572;23;20237;-92
2024/03/03 11:49:16;;;;;;;5.68;1.90;;;;;;;;;;6182957;23;20163;-91
2024/03/03 11:52:44;;;;;;;4.10;2.20;;;;;;;;;;6182436;23;20242;-92
2024/03/03 11:55:51;;;;;;;4.63;1.80;;;;;;;;;;6184432;23;20191;-91
2024/03/03 11:59:01;;;;;;;4.78;1.92;;;;;;;;;;6184309;23;20190;-94
2024/03/03 12:02:07;;;;;;;3.85;1.90;;;;;;;;;;6185024;23;20176;-91
2024/03/03 12:05:13;;;;;;;3.30;1.77;;;;;;;;;;6185102;23;20202;-92
2024/03/03 12:08:19;;;;;;;3.40;1.90;;;;;;;;;;6184804;23;20224;-91
2024/03/03 12:11:26;;;;;;;4.63;2.08;;;;;;;;;;6183825;23;20620;-90
2024/03/03 12:14:47;;;;;;;4.65;1.83;;;;;;;;;;6184505;23;20168;-92
2024/03/03 12:17:55;;;;;;;3.22;2.03;;;;;;;;;;6185185;23;20156;-92
2024/03/03 12:21:01;;;;;;;2.92;2.05;;;;;;;;;;6181434;23;20151;-92
2024/03/03 12:24:06;;;;;;;5.05;2.03;;;;;;;;;;6181175;23;20195;-92
2024/03/03 12:27:12;;;;;;;3.25;1.45;;;;;;;;;;6181133;23;20172;-92
2024/03/03 12:30:22;;;;;;;2.40;1.55;;;;;;;;;;6182553;23;20176;-93
2024/03/03 12:33:28;;;;;;;4.13;1.50;;;;;;;;;;6186158;23;20172;-92
2024/03/03 12:36:45;;;;;;;4.40;1.50;;;;;;;;;;6191393;23;20176;-93
2024/03/03 12:39:51;;;;;;;3.95;1.83;;;;;;;;;;6187414;23;20171;-93
2024/03/03 12:42:57;;;;;;;2.47;1.40;;;;;;;;;;6202327;23;20233;-93
2024/03/03 12:46:06;;;;;;;3.08;1.33;;;;;;;;;;6186043;23;20151;-92
2024/03/03 12:49:11;;;;;;;3.13;1.10;;;;;;;;;;6184721;23;20229;-94
2024/03/03 12:52:18;;;;;;;2.42;1.65;;;;;;;;;;6185884;23;20167;-93
2024/03/03 12:55:26;;;;;;;4.35;1.30;;;;;;;;;;6184865;23;20183;-91
2024/03/03 12:58:33;;;;;;;2.47;1.40;;;;;;;;;;6184777;23;20183;-91
2024/03/03 13:01:40;;;;;;;3.42;1.27;;;;;;;;;;6181119;23;20170;-91
2024/03/03 13:04:46;;;;;;;1.83;1.20;;;;;;;;;;6185223;23;20252;-92
2024/03/03 13:07:52;;;;;;;3.17;1.30;;;;;;;;;;6183499;23;20218;-92
2024/03/03 13:10:58;;;;;;;1.63;0.98;;;;;;;;;;6183886;23;20208;-92
2024/03/03 13:14:05;;;;;;;5.68;1.45;;;;;;;;;;6183026;23;20215;-92
2024/03/03 13:17:13;;;;;;;4.32;2.20;;;;;;;;;;6183358;23;20148;-91
2024/03/03 13:20:32;;;;;;;3.50;1.35;;;;;;;;;;6182637;23;20168;-92
2024/03/03 13:23:38;;;;;;;2.95;1.42;;;;;;;;;;6184835;23;20200;-93
2024/03/03 13:26:42;;;;;;;19.20;8.70;;;;;;;;;;6184198;23;20243;-93
2024/03/03 13:29:48;;;;;;;3.45;1.70;;;;;;;;;;6186311;23;20191;-90
2024/03/03 13:32:56;;;;;;;2.60;1.50;;;;;;;;;;6183014;23;20236;-91
2024/03/03 13:36:02;;;;;;;4.63;2.63;;;;;;;;;;6202200;23;20248;-93
2024/03/03 13:39:09;;;;;;;3.25;1.65;;;;;;;;;;6183004;23;20216;-92
2024/03/03 13:42:15;;;;;;;1.80;1.40;;;;;;;;;;6183415;23;20217;-95
2024/03/03 13:45:21;;;;;;;3.35;1.40;;;;;;;;;;6184193;23;20223;-92
2024/03/03 13:48:32;;;;;;;3.38;1.42;;;;;;;;;;6183219;23;20168;-92
2024/03/03 13:51:37;;;;;;;2.42;1.42;;;;;;;;;;6182691;23;20176;-92
2024/03/03 13:54:43;;;;;;;1.90;1.20;;;;;;;;;;6184200;23;20172;-91
2024/03/03 13:57:50;;;;;;;2.40;1.42;;;;;;;;;;6182298;23;20191;-91
2024/03/03 14:00:55;;;;;;;9.85;2.15;;;;;;;;;;6181268;23;20172;-91
2024/03/03 14:04:04;;;;;;;4.50;1.58;;;;;;;;;;6198148;23;20187;-91
2024/03/03 14:07:09;;;;;;;4.38;1.30;;;;;;;;;;6199091;23;20231;-91
2024/03/03 14:10:15;;;;;;;4.38;1.40;;;;;;;;;;6203751;23;20171;-90
2024/03/03 14:13:21;;;;;;;3.05;1.45;;;;;;;;;;6199573;23;20152;-91
2024/03/03 14:19:56;;;;;;;1.80;1.20;;;;;;;;;;6204618;23;20168;-90
2024/03/03 14:23:03;;;;;;;1.67;1.13;;;;;;;;;;6198727;23;20184;-91
2024/03/03 14:26:08;;;;;;;2.40;1.30;;;;;;;;;;6201657;23;20180;-91
2024/03/03 14:29:13;;;;;;;4.38;1.80;;;;;;;;;;6199327;23;20164;-91
2024/03/03 14:32:17;;;;;;;2.97;1.27;;;;;;;;;;6200984;23;20179;-92
2024/03/03 14:35:26;;;;;;;3.90;1.30;;;;;;;;;;6185650;23;20178;-91
2024/03/03 14:38:32;;;;;;;2.97;1.38;;;;;;;;;;6200993;23;20664;-92
2024/03/03 14:41:37;;;;;;;2.45;1.40;;;;;;;;;;6200340;23;20160;-93
2024/03/03 14:44:43;;;;;;;2.30;1.20;;;;;;;;;;6204177;23;20215;-92
2024/03/03 14:47:50;;;;;;;5.28;1.33;;;;;;;;;;6202297;23;20160;-92
2024/03/03 14:50:57;;;;;;;4.22;1.00;;;;;;;;;;6199287;23;20231;-92
2024/03/03 14:54:03;;;;;;;2.28;1.10;;;;;;;;;;6201967;23;20471;-90
2024/03/03 14:57:08;;;;;;;3.85;1.23;;;;;;;;;;6200742;23;20509;-91
2024/03/03 15:00:14;;;;;;;2.28;1.10;;;;;;;;;;6200847;23;20180;-92
2024/03/03 15:03:19;;;;;;;8.02;3.55;;;;;;;;;;6199729;23;20170;-91
2024/03/03 15:06:27;;;;;;;88.13;39.67;;;;;;;;;;6196607;23;20266;-92
2024/03/03 15:09:32;;;;;;;6.28;2.38;;;;;;;;;;6199154;23;20147;-92
2024/03/03 15:12:38;;;;;;;89.97;29.50;;;;;;;;;;6200460;23;20175;-93
2024/03/03 15:15:43;;;;;;;107.93;35.72;;;;;;;;;;6198135;23;20491;-91
2024/03/03 15:18:51;;;;;;;6.60;2.78;;;;;;;;;;6202253;23;20163;-92
2024/03/03 15:21:59;;;;;;;9.52;3.75;;;;;;;;;;6197492;23;20291;-91
2024/03/03 15:25:05;;;;;;;26.15;10.82;;;;;;;;;;6197968;23;20183;-91
2024/03/03 15:28:10;;;;;;;29.77;12.75;;;;;;;;;;6199120;23;20175;-90
2024/03/03 15:31:15;;;;;;;6.20;2.35;;;;;;;;;;6198983;23;20264;-91
2024/03/03 15:34:25;;;;;;;3.65;1.75;;;;;;;;;;6199180;23;20243;-92
2024/03/03 15:37:32;;;;;;;6.40;2.08;;;;;;;;;;6197465;23;20231;-90
2024/03/03 15:40:38;;;;;;;3.00;1.50;;;;;;;;;;6199659;23;20233;-91
2024/03/03 15:43:45;;;;;;;9.60;2.33;;;;;;;;;;6198513;23;20255;-90
2024/03/03 15:46:50;;;;;;;6.43;1.85;;;;;;;;;;6197640;23;20172;-91
2024/03/03 15:49:55;;;;;;;4.18;1.95;;;;;;;;;;6199276;23;20238;-90
2024/03/03 15:53:02;;;;;;;7.75;1.80;;;;;;;;;;6198591;23;20148;-91
2024/03/03 15:56:07;;;;;;;5.22;1.95;;;;;;;;;;6198899;23;20208;-91
2024/03/03 15:59:13;;;;;;;4.60;1.90;;;;;;;;;;6198443;23;20192;-91
2024/03/03 16:02:18;;;;;;;5.43;2.63;;;;;;;;;;6200018;23;20159;-91
2024/03/03 16:05:24;;;;;;;6.32;2.20;;;;;;;;;;6179161;23;20188;-90
2024/03/03 16:08:31;;;;;;;9.45;3.17;;;;;;;;;;6181717;23;20212;-91
2024/03/03 16:11:37;;;;;;;7.90;3.20;;;;;;;;;;6182587;23;20195;-91
2024/03/03 16:14:43;;;;;;;6.72;2.30;;;;;;;;;;6182129;23;20175;-91
2024/03/03 16:17:48;;;;;;;3.55;2.28;;;;;;;;;;6183891;23;20167;-92
2024/03/03 16:20:53;;;;;;;5.53;2.40;;;;;;;;;;6182747;23;20167;-90
2024/03/03 16:24:01;;;;;;;5.63;2.72;;;;;;;;;;6182889;23;20457;-92
2024/03/03 16:27:06;;;;;;;12.02;4.05;;;;;;;;;;6181495;23;20291;-90
2024/03/03 16:30:16;;;;;;;9.82;4.78;;;;;;;;;;6182872;23;20183;-92
2024/03/03 16:33:22;;;;;;;6.43;3.28;;;;;;;;;;6180910;23;20237;-91
2024/03/03 16:36:29;;;;;;;12.68;4.30;;;;;;;;;;6183666;23;20191;-91
2024/03/03 16:39:36;;;;;;;9.43;3.70;;;;;;;;;;6183317;23;20175;-91
2024/03/03 16:42:54;;;;;;;9.48;3.45;;;;;;;;;;6181457;23;20164;-91
2024/03/03 16:46:00;;;;;;;9.48;3.58;;;;;;;;;;6182647;23;20200;-91
2024/03/03 16:49:06;;;;;;;52.08;24.75;;;;;;;;;;6182191;23;20152;-90
2024/03/03 16:52:11;;;;;;;8.35;3.97;;;;;;;;;;6184157;23;20203;-91
2024/03/03 16:55:18;;;;;;;10.30;5.05;;;;;;;;;;6182489;23;20171;-91
2024/03/03 16:58:24;;;;;;;27.75;11.85;;;;;;;;;;6188009;23;20187;-90
2024/03/03 17:01:34;;;;;;;38.28;15.48;;;;;;;;;;6197302;23;20299;-90
2024/03/03 17:04:41;;;;;;;29.08;11.20;;;;;;;;;;6196578;23;20198;-90
2024/03/03 17:07:49;;;;;;;14.43;6.00;;;;;;;;;;6201206;23;20190;-91
2024/03/03 17:10:56;;;;;;;18.10;6.32;;;;;;;;;;6183332;23;20263;-90
2024/03/03 17:14:03;;;;;;;26.75;8.25;;;;;;;;;;6185415;23;20708;-90
2024/03/03 17:17:08;;;;;;;21.80;8.68;;;;;;;;;;6185587;23;20221;-90
2024/03/03 17:20:13;;;;;;;21.55;6.80;;;;;;;;;;6186000;23;20495;-91
2024/03/03 17:23:20;;;;;;;20.05;8.23;;;;;;;;;;6181433;23;20163;-91
2024/03/03 17:26:28;;;;;;;21.73;7.78;;;;;;;;;;6181299;23;20192;-90
2024/03/03 17:29:33;;;;;;;26.40;10.27;;;;;;;;;;6180308;23;20171;-87
2024/03/03 17:32:38;;;;;;;58.20;29.75;;;;;;;;;;6199478;23;20175;-91
2024/03/03 17:35:44;;;;;;;16.52;7.97;;;;;;;;;;6183556;23;20192;-89
2024/03/03 17:38:49;;;;;;;16.58;8.52;;;;;;;;;;6183035;23;20167;-90
2024/03/03 17:41:56;;;;;;;20.85;7.22;;;;;;;;;;6184722;23;20667;-90
2024/03/03 17:45:04;;;;;;;19.42;9.98;;;;;;;;;;6183439;23;20303;-90
2024/03/03 17:48:10;;;;;;;24.48;8.38;;;;;;;;;;6180646;23;20212;-91
2024/03/03 17:51:16;;;;;;;21.40;7.10;;;;;;;;;;6184022;23;20168;-91
2024/03/03 17:54:22;;;;;;;51.35;12.60;;;;;;;;;;6183246;23;20168;-89
2024/03/03 17:57:30;;;;;;;46.08;12.43;;;;;;;;;;6199739;23;20187;-90
2024/03/03 18:00:37;;;;;;;42.38;12.30;;;;;;;;;;6197176;23;20171;-91
2024/03/03 18:03:42;;;;;;;30.77;9.98;;;;;;;;;;6198197;23;20292;-92
2024/03/03 18:06:47;;;;;;;29.77;10.20;;;;;;;;;;6180726;23;20639;-91
2024/03/03 18:09:52;;;;;;;16.98;6.40;;;;;;;;;;6179776;23;20229;-91
2024/03/03 18:13:02;;;;;;;17.98;5.57;;;;;;;;;;6180302;23;20441;-91
2024/03/03 18:16:09;;;;;;;17.02;5.97;;;;;;;;;;6180270;23;20200;-90
2024/03/03 18:19:15;;;;;;;13.18;6.00;;;;;;;;;;6180888;23;20163;-90
2024/03/03 18:22:24;;;;;;;25.50;10.55;;;;;;;;;;6180908;23;20164;-91
2024/03/03 18:25:30;;;;;;;13.80;6.00;;;;;;;;;;6198859;23;20207;-91
2024/03/03 18:28:37;;;;;;;12.02;6.47;;;;;;;;;;6178518;23;20159;-91
2024/03/03 18:31:42;;;;;;;15.70;5.90;;;;;;;;;;6180424;23;20175;-91
2024/03/03 18:34:48;;;;;;;16.95;6.55;;;;;;;;;;6182875;23;20171;-91